Aérodrome :
LOGIN :

S'inscrire | Disclaimer

   EN    FR    IT 

 










Légende :    VFR   VFR Marginal   IFR   IFR Intensif   IFR Très Intensif
Visi : 
Plafond : 
>= 8 km
>= 3000ft
5 à 8 km
1000 à 3000 ft
1500m à 5 km
500 à 1000 ft
800 à 1500m
200 à 500 ft
< 800m
< 200 ft
Symboles :   Orages  Brouillard  Fortes neiges  Fortes précipitations  Vent > 20 kt
SIGMETs :   Divers  Orages  Givrage  Turbulence  Onde Orograph.  Cendres Volcan.






- Altitude de l'aérodrome : 1411 ft
- Code IATA : GVA


LSGG - Genève Cointrin

DERNIER METAR :
  • 221050Z 07007KT 030V090 9999 SCT010 BKN020 14/12 Q1023 NOSIG

METARs EXPIRÉS :
  • 221020Z 06007KT 9999 FEW009 BKN015 14/12 Q1023 NOSIG
  • 220950Z 07007KT 9999 FEW009 BKN015 14/12 Q1023 NOSIG
  • 220920Z 05008KT 9999 FEW009 BKN015 14/13 Q1023 NOSIG
  • 220850Z 05006KT 9999 SCT009 BKN020 14/12 Q1023 NOSIG
  • 220820Z 04004KT 9999 SCT009 BKN020 14/13 Q1023 NOSIG

TAF TAF LSGG
Valide du 22 à 09h jusqu'au 23 à 15h UTC


220825Z 2209/2315 VRB01KT 9999 SCT009 BKN020 TX17/2215Z TN10/2305Z TX18/2315Z
BECMG 2209/2211 05008KT
BECMG 2217/2219 VRB03KT BKN010
BECMG 2302/2304 BKN008
ATIS : +41 22 417 40 81



MET'MAP, la Météo Aéronautique d'un coup d'oeil ! - Copyright ORBIFLY Décembre 2007 - Disclaimer

ORBIFLY MET'MAP TEAM :

Programmation & Développement : Alexandra Zaïnal
Conception & Développement : Baudouin d'Aumeries
Co-Programmation & Développement : Marc-Olivier Méhu
Soutien technique & logistique : Manuel Goepfert

Contact : metmap@orbifly.com




SOURCES & CREDITS :

   NOAA